sensor_id;sensor_type;location;lat;lon;timestamp;P1;durP1;ratioP1;P2;durP2;ratioP2
22378;SDS011;11357;49.990;7.370;2023-10-19T00:00:36;25.53;;;16.13;;
22378;SDS011;11357;49.990;7.370;2023-10-19T00:03:06;23.40;;;15.23;;
22378;SDS011;11357;49.990;7.370;2023-10-19T00:05:32;33.13;;;18.00;;
22378;SDS011;11357;49.990;7.370;2023-10-19T00:08:01;30.73;;;16.60;;
22378;SDS011;11357;49.990;7.370;2023-10-19T00:10:50;30.17;;;16.43;;
22378;SDS011;11357;49.990;7.370;2023-10-19T00:13:38;31.40;;;16.80;;
22378;SDS011;11357;49.990;7.370;2023-10-19T00:16:07;33.83;;;18.07;;
22378;SDS011;11357;49.990;7.370;2023-10-19T00:18:41;31.57;;;16.50;;
22378;SDS011;11357;49.990;7.370;2023-10-19T00:21:08;31.17;;;15.07;;
22378;SDS011;11357;49.990;7.370;2023-10-19T00:23:49;41.63;;;18.13;;
22378;SDS011;11357;49.990;7.370;2023-10-19T00:26:22;39.07;;;17.40;;
22378;SDS011;11357;49.990;7.370;2023-10-19T00:28:52;57.57;;;20.00;;
22378;SDS011;11357;49.990;7.370;2023-10-19T00:31:20;41.20;;;18.53;;
22378;SDS011;11357;49.990;7.370;2023-10-19T00:33:47;73.03;;;20.77;;
22378;SDS011;11357;49.990;7.370;2023-10-19T00:36:16;47.83;;;18.97;;
22378;SDS011;11357;49.990;7.370;2023-10-19T00:38:45;42.57;;;17.37;;
22378;SDS011;11357;49.990;7.370;2023-10-19T00:41:14;45.27;;;18.80;;
22378;SDS011;11357;49.990;7.370;2023-10-19T00:43:49;54.23;;;19.60;;
22378;SDS011;11357;49.990;7.370;2023-10-19T00:46:17;52.27;;;19.10;;
22378;SDS011;11357;49.990;7.370;2023-10-19T00:48:44;54.17;;;18.77;;
22378;SDS011;11357;49.990;7.370;2023-10-19T00:51:16;53.90;;;19.10;;
22378;SDS011;11357;49.990;7.370;2023-10-19T00:54:14;60.40;;;19.80;;
22378;SDS011;11357;49.990;7.370;2023-10-19T00:56:51;79.20;;;21.20;;
22378;SDS011;11357;49.990;7.370;2023-10-19T00:59:18;54.87;;;19.27;;
22378;SDS011;11357;49.990;7.370;2023-10-19T01:01:54;43.47;;;17.73;;
22378;SDS011;11357;49.990;7.370;2023-10-19T01:04:30;53.53;;;18.17;;
22378;SDS011;11357;49.990;7.370;2023-10-19T01:06:58;70.17;;;19.90;;
22378;SDS011;11357;49.990;7.370;2023-10-19T01:09:37;47.40;;;18.63;;
22378;SDS011;11357;49.990;7.370;2023-10-19T01:12:04;61.80;;;19.30;;
22378;SDS011;11357;49.990;7.370;2023-10-19T01:17:35;51.73;;;18.80;;
22378;SDS011;11357;49.990;7.370;2023-10-19T01:20:11;50.93;;;18.33;;
22378;SDS011;11357;49.990;7.370;2023-10-19T01:22:48;56.03;;;19.03;;
22378;SDS011;11357;49.990;7.370;2023-10-19T01:25:18;48.47;;;17.97;;
22378;SDS011;11357;49.990;7.370;2023-10-19T01:27:49;105.23;;;22.50;;
22378;SDS011;11357;49.990;7.370;2023-10-19T01:30:19;92.67;;;21.60;;
22378;SDS011;11357;49.990;7.370;2023-10-19T01:32:45;52.47;;;19.77;;
22378;SDS011;11357;49.990;7.370;2023-10-19T01:35:11;95.50;;;22.37;;
22378;SDS011;11357;49.990;7.370;2023-10-19T01:37:37;70.73;;;20.93;;
22378;SDS011;11357;49.990;7.370;2023-10-19T01:40:03;53.13;;;19.43;;
22378;SDS011;11357;49.990;7.370;2023-10-19T01:42:29;55.03;;;19.37;;
22378;SDS011;11357;49.990;7.370;2023-10-19T01:44:55;73.10;;;22.87;;
22378;SDS011;11357;49.990;7.370;2023-10-19T01:47:21;144.87;;;23.47;;
22378;SDS011;11357;49.990;7.370;2023-10-19T01:49:47;70.77;;;21.30;;
22378;SDS011;11357;49.990;7.370;2023-10-19T01:52:17;117.50;;;23.53;;
22378;SDS011;11357;49.990;7.370;2023-10-19T01:54:43;51.07;;;19.33;;
22378;SDS011;11357;49.990;7.370;2023-10-19T01:57:08;53.50;;;19.67;;
22378;SDS011;11357;49.990;7.370;2023-10-19T01:59:34;58.47;;;21.43;;
22378;SDS011;11357;49.990;7.370;2023-10-19T02:02:00;56.83;;;20.73;;
22378;SDS011;11357;49.990;7.370;2023-10-19T02:04:27;59.20;;;20.90;;
22378;SDS011;11357;49.990;7.370;2023-10-19T02:06:53;54.00;;;19.20;;
22378;SDS011;11357;49.990;7.370;2023-10-19T02:09:19;51.20;;;19.97;;
22378;SDS011;11357;49.990;7.370;2023-10-19T02:11:51;74.73;;;22.13;;
22378;SDS011;11357;49.990;7.370;2023-10-19T02:14:22;55.37;;;20.60;;
22378;SDS011;11357;49.990;7.370;2023-10-19T02:16:51;49.40;;;20.10;;
22378;SDS011;11357;49.990;7.370;2023-10-19T02:19:18;54.93;;;20.37;;
22378;SDS011;11357;49.990;7.370;2023-10-19T02:21:48;53.07;;;21.13;;
22378;SDS011;11357;49.990;7.370;2023-10-19T02:24:37;58.40;;;20.73;;
22378;SDS011;11357;49.990;7.370;2023-10-19T02:27:04;61.87;;;20.60;;
22378;SDS011;11357;49.990;7.370;2023-10-19T02:29:29;60.33;;;21.40;;
22378;SDS011;11357;49.990;7.370;2023-10-19T02:31:56;52.63;;;20.87;;
22378;SDS011;11357;49.990;7.370;2023-10-19T02:34:22;54.80;;;19.77;;
22378;SDS011;11357;49.990;7.370;2023-10-19T02:36:48;62.37;;;21.73;;
22378;SDS011;11357;49.990;7.370;2023-10-19T02:39:14;55.20;;;20.50;;
22378;SDS011;11357;49.990;7.370;2023-10-19T02:41:46;53.20;;;20.67;;
22378;SDS011;11357;49.990;7.370;2023-10-19T02:44:17;61.10;;;21.63;;
22378;SDS011;11357;49.990;7.370;2023-10-19T02:46:48;62.27;;;21.47;;
22378;SDS011;11357;49.990;7.370;2023-10-19T02:49:23;48.30;;;20.17;;
22378;SDS011;11357;49.990;7.370;2023-10-19T02:51:51;91.70;;;23.13;;
22378;SDS011;11357;49.990;7.370;2023-10-19T02:54:18;56.10;;;21.70;;
22378;SDS011;11357;49.990;7.370;2023-10-19T02:56:47;56.23;;;21.93;;
22378;SDS011;11357;49.990;7.370;2023-10-19T02:59:18;49.60;;;21.03;;
22378;SDS011;11357;49.990;7.370;2023-10-19T03:01:51;48.73;;;19.83;;
22378;SDS011;11357;49.990;7.370;2023-10-19T03:57:31;53.50;;;20.63;;
22378;SDS011;11357;49.990;7.370;2023-10-19T04:00:00;52.10;;;20.83;;
22378;SDS011;11357;49.990;7.370;2023-10-19T04:02:25;70.90;;;22.13;;
22378;SDS011;11357;49.990;7.370;2023-10-19T04:17:50;55.67;;;18.63;;
22378;SDS011;11357;49.990;7.370;2023-10-19T04:20:18;47.50;;;18.23;;
22378;SDS011;11357;49.990;7.370;2023-10-19T04:22:44;52.87;;;19.57;;
22378;SDS011;11357;49.990;7.370;2023-10-19T04:25:11;68.37;;;23.07;;
22378;SDS011;11357;49.990;7.370;2023-10-19T04:27:40;82.23;;;25.63;;
22378;SDS011;11357;49.990;7.370;2023-10-19T04:30:09;56.13;;;21.43;;
22378;SDS011;11357;49.990;7.370;2023-10-19T04:32:49;58.73;;;22.53;;
22378;SDS011;11357;49.990;7.370;2023-10-19T04:40:26;24.73;;;12.30;;
22378;SDS011;11357;49.990;7.370;2023-10-19T04:42:52;27.40;;;10.87;;
22378;SDS011;11357;49.990;7.370;2023-10-19T04:45:19;19.43;;;9.47;;
22378;SDS011;11357;49.990;7.370;2023-10-19T04:47:45;22.57;;;9.97;;
22378;SDS011;11357;49.990;7.370;2023-10-19T04:50:11;25.57;;;10.87;;
22378;SDS011;11357;49.990;7.370;2023-10-19T04:52:37;27.30;;;11.57;;
22378;SDS011;11357;49.990;7.370;2023-10-19T04:55:04;27.97;;;11.93;;
22378;SDS011;11357;49.990;7.370;2023-10-19T04:57:30;28.73;;;12.40;;
22378;SDS011;11357;49.990;7.370;2023-10-19T04:59:56;39.83;;;15.07;;
22378;SDS011;11357;49.990;7.370;2023-10-19T05:02:22;31.97;;;14.13;;
22378;SDS011;11357;49.990;7.370;2023-10-19T05:07:24;46.27;;;16.83;;
22378;SDS011;11357;49.990;7.370;2023-10-19T05:09:49;42.77;;;16.83;;
22378;SDS011;11357;49.990;7.370;2023-10-19T05:12:15;30.57;;;13.37;;
22378;SDS011;11357;49.990;7.370;2023-10-19T05:17:16;46.43;;;16.30;;
22378;SDS011;11357;49.990;7.370;2023-10-19T05:19:41;51.47;;;17.67;;
22378;SDS011;11357;49.990;7.370;2023-10-19T05:22:08;48.53;;;18.70;;
22378;SDS011;11357;49.990;7.370;2023-10-19T05:37:31;36.07;;;16.07;;
22378;SDS011;11357;49.990;7.370;2023-10-19T05:39:57;32.90;;;15.67;;
22378;SDS011;11357;49.990;7.370;2023-10-19T05:42:23;42.17;;;15.30;;
22378;SDS011;11357;49.990;7.370;2023-10-19T05:57:47;27.30;;;14.10;;
22378;SDS011;11357;49.990;7.370;2023-10-19T06:00:13;38.63;;;14.80;;
22378;SDS011;11357;49.990;7.370;2023-10-19T06:02:42;39.77;;;15.97;;
22378;SDS011;11357;49.990;7.370;2023-10-19T06:05:09;27.37;;;13.43;;
22378;SDS011;11357;49.990;7.370;2023-10-19T06:07:36;33.63;;;14.30;;
22378;SDS011;11357;49.990;7.370;2023-10-19T06:10:01;24.90;;;13.23;;
22378;SDS011;11357;49.990;7.370;2023-10-19T06:12:31;31.47;;;13.83;;
22378;SDS011;11357;49.990;7.370;2023-10-19T06:17:32;38.50;;;15.27;;
22378;SDS011;11357;49.990;7.370;2023-10-19T06:19:58;33.97;;;15.00;;
22378;SDS011;11357;49.990;7.370;2023-10-19T06:22:24;30.63;;;14.70;;
22378;SDS011;11357;49.990;7.370;2023-10-19T06:24:49;26.93;;;13.87;;
22378;SDS011;11357;49.990;7.370;2023-10-19T06:27:15;23.33;;;12.77;;
22378;SDS011;11357;49.990;7.370;2023-10-19T06:29:40;26.23;;;14.73;;
22378;SDS011;11357;49.990;7.370;2023-10-19T06:32:06;45.03;;;18.17;;
22378;SDS011;11357;49.990;7.370;2023-10-19T06:34:32;34.00;;;16.10;;
22378;SDS011;11357;49.990;7.370;2023-10-19T06:36:57;54.93;;;19.40;;
22378;SDS011;11357;49.990;7.370;2023-10-19T06:39:24;32.73;;;15.57;;
22378;SDS011;11357;49.990;7.370;2023-10-19T06:41:51;46.67;;;18.23;;
22378;SDS011;11357;49.990;7.370;2023-10-19T06:44:17;57.13;;;21.00;;
22378;SDS011;11357;49.990;7.370;2023-10-19T06:46:42;34.27;;;17.00;;
22378;SDS011;11357;49.990;7.370;2023-10-19T06:49:08;37.30;;;18.40;;
22378;SDS011;11357;49.990;7.370;2023-10-19T06:51:34;37.87;;;18.07;;
22378;SDS011;11357;49.990;7.370;2023-10-19T06:54:01;29.60;;;15.27;;
22378;SDS011;11357;49.990;7.370;2023-10-19T06:56:27;25.83;;;16.27;;
22378;SDS011;11357;49.990;7.370;2023-10-19T06:58:53;45.00;;;19.10;;
22378;SDS011;11357;49.990;7.370;2023-10-19T07:01:20;59.10;;;21.27;;
22378;SDS011;11357;49.990;7.370;2023-10-19T07:03:50;43.87;;;18.90;;
22378;SDS011;11357;49.990;7.370;2023-10-19T07:06:24;91.23;;;22.77;;
22378;SDS011;11357;49.990;7.370;2023-10-19T07:08:50;70.30;;;21.10;;
22378;SDS011;11357;49.990;7.370;2023-10-19T07:11:16;37.83;;;18.23;;
22378;SDS011;11357;49.990;7.370;2023-10-19T07:13:42;30.27;;;15.63;;
22378;SDS011;11357;49.990;7.370;2023-10-19T07:16:11;33.23;;;16.33;;
22378;SDS011;11357;49.990;7.370;2023-10-19T07:18:38;47.70;;;18.87;;
22378;SDS011;11357;49.990;7.370;2023-10-19T07:21:04;53.77;;;18.97;;
22378;SDS011;11357;49.990;7.370;2023-10-19T07:23:31;43.90;;;18.07;;
22378;SDS011;11357;49.990;7.370;2023-10-19T07:25:56;43.87;;;17.33;;
22378;SDS011;11357;49.990;7.370;2023-10-19T07:28:26;37.87;;;18.00;;
22378;SDS011;11357;49.990;7.370;2023-10-19T07:30:52;30.90;;;15.70;;
22378;SDS011;11357;49.990;7.370;2023-10-19T07:33:18;31.83;;;16.23;;
22378;SDS011;11357;49.990;7.370;2023-10-19T07:35:47;25.63;;;13.87;;
22378;SDS011;11357;49.990;7.370;2023-10-19T07:38:25;23.43;;;13.97;;
22378;SDS011;11357;49.990;7.370;2023-10-19T07:40:51;29.63;;;16.10;;
22378;SDS011;11357;49.990;7.370;2023-10-19T07:43:18;29.10;;;16.83;;
22378;SDS011;11357;49.990;7.370;2023-10-19T07:45:45;47.57;;;18.97;;
22378;SDS011;11357;49.990;7.370;2023-10-19T07:48:29;34.97;;;17.37;;
22378;SDS011;11357;49.990;7.370;2023-10-19T07:50:54;49.40;;;17.57;;
22378;SDS011;11357;49.990;7.370;2023-10-19T07:53:21;45.90;;;17.77;;
22378;SDS011;11357;49.990;7.370;2023-10-19T07:55:56;32.63;;;15.30;;
22378;SDS011;11357;49.990;7.370;2023-10-19T07:58:22;26.60;;;15.10;;
22378;SDS011;11357;49.990;7.370;2023-10-19T08:00:48;24.23;;;14.33;;
22378;SDS011;11357;49.990;7.370;2023-10-19T08:03:14;30.90;;;14.37;;
22378;SDS011;11357;49.990;7.370;2023-10-19T08:05:41;26.43;;;13.77;;
22378;SDS011;11357;49.990;7.370;2023-10-19T08:08:07;26.13;;;12.30;;
22378;SDS011;11357;49.990;7.370;2023-10-19T08:10:33;20.30;;;10.07;;
22378;SDS011;11357;49.990;7.370;2023-10-19T08:12:59;22.20;;;9.73;;
22378;SDS011;11357;49.990;7.370;2023-10-19T08:15:26;14.20;;;8.03;;
22378;SDS011;11357;49.990;7.370;2023-10-19T08:17:53;16.13;;;7.57;;
22378;SDS011;11357;49.990;7.370;2023-10-19T08:20:20;12.37;;;6.47;;
22378;SDS011;11357;49.990;7.370;2023-10-19T08:22:49;14.50;;;7.63;;
22378;SDS011;11357;49.990;7.370;2023-10-19T08:25:22;15.33;;;7.00;;
22378;SDS011;11357;49.990;7.370;2023-10-19T08:27:48;11.90;;;5.50;;
22378;SDS011;11357;49.990;7.370;2023-10-19T08:30:15;15.70;;;6.00;;
22378;SDS011;11357;49.990;7.370;2023-10-19T08:32:46;12.50;;;6.70;;
22378;SDS011;11357;49.990;7.370;2023-10-19T09:47:49;10.48;;;3.88;;
22378;SDS011;11357;49.990;7.370;2023-10-19T09:50:16;9.68;;;3.80;;
22378;SDS011;11357;49.990;7.370;2023-10-19T09:52:41;8.38;;;4.00;;
22378;SDS011;11357;49.990;7.370;2023-10-19T09:55:10;7.83;;;3.97;;
22378;SDS011;11357;49.990;7.370;2023-10-19T09:57:51;11.45;;;4.05;;
22378;SDS011;11357;49.990;7.370;2023-10-19T10:00:24;10.52;;;5.03;;
22378;SDS011;11357;49.990;7.370;2023-10-19T10:02:50;10.10;;;4.60;;
22378;SDS011;11357;49.990;7.370;2023-10-19T10:10:50;7.03;;;5.33;;
22378;SDS011;11357;49.990;7.370;2023-10-19T10:15:56;11.27;;;6.32;;
22378;SDS011;11357;49.990;7.370;2023-10-19T10:18:26;13.13;;;7.10;;
22378;SDS011;11357;49.990;7.370;2023-10-19T10:21:10;11.10;;;8.30;;
22378;SDS011;11357;49.990;7.370;2023-10-19T10:23:42;11.77;;;7.60;;
22378;SDS011;11357;49.990;7.370;2023-10-19T10:57:19;19.47;;;8.50;;
22378;SDS011;11357;49.990;7.370;2023-10-19T10:59:45;11.93;;;7.20;;
22378;SDS011;11357;49.990;7.370;2023-10-19T11:02:18;12.90;;;7.38;;
22378;SDS011;11357;49.990;7.370;2023-10-19T11:04:44;13.23;;;7.90;;
22378;SDS011;11357;49.990;7.370;2023-10-19T11:07:17;17.08;;;8.15;;
22378;SDS011;11357;49.990;7.370;2023-10-19T11:09:44;10.77;;;7.23;;
22378;SDS011;11357;49.990;7.370;2023-10-19T11:12:11;11.77;;;7.03;;
22378;SDS011;11357;49.990;7.370;2023-10-19T11:14:57;9.77;;;6.60;;
22378;SDS011;11357;49.990;7.370;2023-10-19T11:22:55;11.90;;;7.93;;
22378;SDS011;11357;49.990;7.370;2023-10-19T11:25:25;10.90;;;6.83;;
22378;SDS011;11357;49.990;7.370;2023-10-19T11:30:31;14.80;;;8.25;;
22378;SDS011;11357;49.990;7.370;2023-10-19T11:32:57;12.40;;;6.90;;
22378;SDS011;11357;49.990;7.370;2023-10-19T11:35:26;11.60;;;7.27;;
22378;SDS011;11357;49.990;7.370;2023-10-19T11:40:30;12.18;;;6.50;;
22378;SDS011;11357;49.990;7.370;2023-10-19T11:42:56;8.77;;;6.93;;
22378;SDS011;11357;49.990;7.370;2023-10-19T11:45:22;13.13;;;7.73;;
22378;SDS011;11357;49.990;7.370;2023-10-19T11:47:53;12.55;;;8.02;;
22378;SDS011;11357;49.990;7.370;2023-10-19T11:50:22;10.37;;;8.00;;
22378;SDS011;11357;49.990;7.370;2023-10-19T11:52:49;11.37;;;9.20;;
22378;SDS011;11357;49.990;7.370;2023-10-19T11:55:15;12.33;;;8.90;;
22378;SDS011;11357;49.990;7.370;2023-10-19T11:57:44;15.93;;;9.47;;
22378;SDS011;11357;49.990;7.370;2023-10-19T12:00:10;18.13;;;9.40;;
22378;SDS011;11357;49.990;7.370;2023-10-19T12:02:39;16.97;;;9.57;;
22378;SDS011;11357;49.990;7.370;2023-10-19T12:05:10;13.87;;;9.20;;
22378;SDS011;11357;49.990;7.370;2023-10-19T12:30:56;15.10;;;9.98;;
22378;SDS011;11357;49.990;7.370;2023-10-19T12:33:22;18.00;;;10.10;;
22378;SDS011;11357;49.990;7.370;2023-10-19T12:35:48;14.47;;;9.33;;
22378;SDS011;11357;49.990;7.370;2023-10-19T12:38:17;15.43;;;9.10;;
22378;SDS011;11357;49.990;7.370;2023-10-19T12:40:48;13.90;;;9.30;;
22378;SDS011;11357;49.990;7.370;2023-10-19T12:43:16;15.87;;;9.40;;
22378;SDS011;11357;49.990;7.370;2023-10-19T12:45:50;11.47;;;7.77;;
22378;SDS011;11357;49.990;7.370;2023-10-19T12:48:16;13.90;;;9.00;;
22378;SDS011;11357;49.990;7.370;2023-10-19T12:50:42;13.93;;;10.33;;
22378;SDS011;11357;49.990;7.370;2023-10-19T12:53:08;11.23;;;9.35;;
22378;SDS011;11357;49.990;7.370;2023-10-19T12:55:34;12.90;;;9.40;;
22378;SDS011;11357;49.990;7.370;2023-10-19T12:58:02;14.17;;;9.23;;
22378;SDS011;11357;49.990;7.370;2023-10-19T13:00:33;13.38;;;9.10;;
22378;SDS011;11357;49.990;7.370;2023-10-19T13:03:06;18.23;;;10.17;;
22378;SDS011;11357;49.990;7.370;2023-10-19T13:05:36;14.00;;;9.10;;
22378;SDS011;11357;49.990;7.370;2023-10-19T13:08:02;15.70;;;10.38;;
22378;SDS011;11357;49.990;7.370;2023-10-19T13:10:33;13.93;;;9.43;;
22378;SDS011;11357;49.990;7.370;2023-10-19T13:13:04;12.35;;;9.60;;
22378;SDS011;11357;49.990;7.370;2023-10-19T13:15:34;17.13;;;9.70;;
22378;SDS011;11357;49.990;7.370;2023-10-19T13:18:01;16.07;;;10.77;;
22378;SDS011;11357;49.990;7.370;2023-10-19T13:20:27;13.07;;;9.00;;
22378;SDS011;11357;49.990;7.370;2023-10-19T13:22:59;14.13;;;10.02;;
22378;SDS011;11357;49.990;7.370;2023-10-19T13:25:32;13.48;;;9.40;;
22378;SDS011;11357;49.990;7.370;2023-10-19T13:28:10;14.60;;;9.90;;
22378;SDS011;11357;49.990;7.370;2023-10-19T13:30:40;13.43;;;9.20;;
22378;SDS011;11357;49.990;7.370;2023-10-19T13:33:07;17.77;;;10.50;;
22378;SDS011;11357;49.990;7.370;2023-10-19T13:35:36;14.88;;;10.63;;
22378;SDS011;11357;49.990;7.370;2023-10-19T13:38:06;16.63;;;10.23;;
22378;SDS011;11357;49.990;7.370;2023-10-19T13:40:38;14.75;;;10.38;;
22378;SDS011;11357;49.990;7.370;2023-10-19T13:43:04;12.95;;;10.02;;
22378;SDS011;11357;49.990;7.370;2023-10-19T13:45:34;14.60;;;10.48;;
22378;SDS011;11357;49.990;7.370;2023-10-19T13:48:02;17.75;;;11.00;;
22378;SDS011;11357;49.990;7.370;2023-10-19T13:50:29;16.42;;;11.20;;
22378;SDS011;11357;49.990;7.370;2023-10-19T13:52:55;13.33;;;10.70;;
22378;SDS011;11357;49.990;7.370;2023-10-19T13:55:24;13.60;;;10.40;;
22378;SDS011;11357;49.990;7.370;2023-10-19T14:21:12;17.40;;;12.57;;
22378;SDS011;11357;49.990;7.370;2023-10-19T14:23:39;19.40;;;12.50;;
22378;SDS011;11357;49.990;7.370;2023-10-19T14:26:05;19.03;;;12.53;;
22378;SDS011;11357;49.990;7.370;2023-10-19T14:28:50;17.70;;;11.80;;
22378;SDS011;11357;49.990;7.370;2023-10-19T14:31:16;15.57;;;10.68;;
22378;SDS011;11357;49.990;7.370;2023-10-19T14:33:41;14.80;;;10.50;;
22378;SDS011;11357;49.990;7.370;2023-10-19T14:36:09;14.20;;;10.10;;
22378;SDS011;11357;49.990;7.370;2023-10-19T15:17:25;12.63;;;7.10;;
22378;SDS011;11357;49.990;7.370;2023-10-19T15:19:53;9.10;;;6.45;;
22378;SDS011;11357;49.990;7.370;2023-10-19T15:22:22;9.57;;;6.63;;
22378;SDS011;11357;49.990;7.370;2023-10-19T15:24:50;9.77;;;6.53;;
22378;SDS011;11357;49.990;7.370;2023-10-19T17:16:02;10.87;;;9.43;;
22378;SDS011;11357;49.990;7.370;2023-10-19T17:18:28;11.27;;;8.10;;
22378;SDS011;11357;49.990;7.370;2023-10-19T17:20:54;11.57;;;8.83;;
22378;SDS011;11357;49.990;7.370;2023-10-19T17:23:21;12.43;;;8.53;;
22378;SDS011;11357;49.990;7.370;2023-10-19T17:25:48;11.87;;;8.80;;
22378;SDS011;11357;49.990;7.370;2023-10-19T17:28:15;16.47;;;10.57;;
22378;SDS011;11357;49.990;7.370;2023-10-19T17:30:41;13.70;;;10.00;;
22378;SDS011;11357;49.990;7.370;2023-10-19T17:33:07;13.20;;;9.97;;
22378;SDS011;11357;49.990;7.370;2023-10-19T17:35:33;11.50;;;10.10;;
22378;SDS011;11357;49.990;7.370;2023-10-19T17:38:00;16.03;;;10.77;;
22378;SDS011;11357;49.990;7.370;2023-10-19T17:40:26;12.80;;;10.40;;
22378;SDS011;11357;49.990;7.370;2023-10-19T17:42:52;13.57;;;11.13;;
22378;SDS011;11357;49.990;7.370;2023-10-19T17:45:18;15.33;;;10.73;;
22378;SDS011;11357;49.990;7.370;2023-10-19T17:47:44;14.20;;;11.30;;
22378;SDS011;11357;49.990;7.370;2023-10-19T17:50:10;14.83;;;11.73;;
22378;SDS011;11357;49.990;7.370;2023-10-19T17:52:37;13.63;;;11.00;;
22378;SDS011;11357;49.990;7.370;2023-10-19T17:55:03;15.97;;;11.90;;
22378;SDS011;11357;49.990;7.370;2023-10-19T17:57:29;18.43;;;12.83;;
22378;SDS011;11357;49.990;7.370;2023-10-19T17:59:57;16.33;;;11.93;;
22378;SDS011;11357;49.990;7.370;2023-10-19T18:02:23;19.20;;;13.07;;
22378;SDS011;11357;49.990;7.370;2023-10-19T18:04:49;14.83;;;12.17;;
22378;SDS011;11357;49.990;7.370;2023-10-19T18:07:18;21.80;;;13.93;;
22378;SDS011;11357;49.990;7.370;2023-10-19T18:09:44;20.13;;;13.97;;
22378;SDS011;11357;49.990;7.370;2023-10-19T18:12:10;16.77;;;13.17;;
22378;SDS011;11357;49.990;7.370;2023-10-19T18:14:37;18.93;;;13.87;;
22378;SDS011;11357;49.990;7.370;2023-10-19T18:17:03;19.90;;;13.90;;
22378;SDS011;11357;49.990;7.370;2023-10-19T18:19:34;19.73;;;13.20;;
22378;SDS011;11357;49.990;7.370;2023-10-19T18:22:00;16.47;;;12.93;;
22378;SDS011;11357;49.990;7.370;2023-10-19T18:24:26;17.87;;;13.43;;
22378;SDS011;11357;49.990;7.370;2023-10-19T18:26:57;23.37;;;13.37;;
22378;SDS011;11357;49.990;7.370;2023-10-19T18:29:23;15.50;;;12.37;;
22378;SDS011;11357;49.990;7.370;2023-10-19T18:31:49;18.73;;;13.60;;
22378;SDS011;11357;49.990;7.370;2023-10-19T18:34:14;18.70;;;13.57;;
22378;SDS011;11357;49.990;7.370;2023-10-19T18:36:44;19.77;;;13.43;;
22378;SDS011;11357;49.990;7.370;2023-10-19T18:39:10;21.30;;;15.50;;
22378;SDS011;11357;49.990;7.370;2023-10-19T18:41:40;19.80;;;13.53;;
22378;SDS011;11357;49.990;7.370;2023-10-19T18:44:07;18.43;;;14.17;;
22378;SDS011;11357;49.990;7.370;2023-10-19T18:52:18;16.77;;;12.80;;
22378;SDS011;11357;49.990;7.370;2023-10-19T19:26:41;13.17;;;11.07;;
22378;SDS011;11357;49.990;7.370;2023-10-19T19:29:06;17.33;;;11.47;;
22378;SDS011;11357;49.990;7.370;2023-10-19T19:31:32;15.40;;;11.93;;
22378;SDS011;11357;49.990;7.370;2023-10-19T19:34:00;14.07;;;10.80;;
22378;SDS011;11357;49.990;7.370;2023-10-19T20:10:44;13.10;;;10.27;;
22378;SDS011;11357;49.990;7.370;2023-10-19T20:13:11;15.13;;;11.17;;
22378;SDS011;11357;49.990;7.370;2023-10-19T20:15:38;12.27;;;10.13;;
22378;SDS011;11357;49.990;7.370;2023-10-19T20:18:06;12.73;;;10.27;;
22378;SDS011;11357;49.990;7.370;2023-10-19T20:20:33;13.80;;;10.53;;
22378;SDS011;11357;49.990;7.370;2023-10-19T20:22:59;11.13;;;9.90;;
22378;SDS011;11357;49.990;7.370;2023-10-19T20:25:28;16.80;;;11.00;;
22378;SDS011;11357;49.990;7.370;2023-10-19T20:27:55;13.97;;;10.17;;
22378;SDS011;11357;49.990;7.370;2023-10-19T20:30:22;13.03;;;9.73;;
22378;SDS011;11357;49.990;7.370;2023-10-19T20:32:49;12.00;;;9.20;;
22378;SDS011;11357;49.990;7.370;2023-10-19T20:35:17;13.93;;;9.53;;
22378;SDS011;11357;49.990;7.370;2023-10-19T20:37:43;12.43;;;9.10;;
22378;SDS011;11357;49.990;7.370;2023-10-19T20:40:10;11.67;;;8.83;;
22378;SDS011;11357;49.990;7.370;2023-10-19T20:42:39;10.80;;;8.77;;
22378;SDS011;11357;49.990;7.370;2023-10-19T20:45:18;12.77;;;9.27;;
22378;SDS011;11357;49.990;7.370;2023-10-19T20:47:51;12.57;;;9.20;;
22378;SDS011;11357;49.990;7.370;2023-10-19T20:50:21;12.43;;;10.00;;
22378;SDS011;11357;49.990;7.370;2023-10-19T20:52:49;12.90;;;10.27;;
22378;SDS011;11357;49.990;7.370;2023-10-19T20:55:16;11.80;;;9.27;;
22378;SDS011;11357;49.990;7.370;2023-10-19T20:57:42;13.37;;;10.27;;
22378;SDS011;11357;49.990;7.370;2023-10-19T21:00:09;11.63;;;9.30;;
22378;SDS011;11357;49.990;7.370;2023-10-19T21:02:37;12.17;;;10.13;;
22378;SDS011;11357;49.990;7.370;2023-10-19T21:05:04;13.27;;;9.77;;
22378;SDS011;11357;49.990;7.370;2023-10-19T21:07:35;11.97;;;9.57;;
22378;SDS011;11357;49.990;7.370;2023-10-19T21:10:02;11.93;;;9.80;;
22378;SDS011;11357;49.990;7.370;2023-10-19T21:12:31;13.60;;;10.20;;
22378;SDS011;11357;49.990;7.370;2023-10-19T21:14:57;13.30;;;10.33;;
22378;SDS011;11357;49.990;7.370;2023-10-19T21:17:23;12.47;;;10.30;;
22378;SDS011;11357;49.990;7.370;2023-10-19T21:19:48;13.83;;;10.73;;
22378;SDS011;11357;49.990;7.370;2023-10-19T21:22:14;15.13;;;10.90;;
22378;SDS011;11357;49.990;7.370;2023-10-19T21:24:41;13.03;;;10.53;;
22378;SDS011;11357;49.990;7.370;2023-10-19T21:27:07;19.47;;;11.00;;
22378;SDS011;11357;49.990;7.370;2023-10-19T21:29:35;14.17;;;10.33;;
22378;SDS011;11357;49.990;7.370;2023-10-19T21:32:00;14.90;;;10.30;;
22378;SDS011;11357;49.990;7.370;2023-10-19T21:34:26;13.07;;;10.03;;
22378;SDS011;11357;49.990;7.370;2023-10-19T21:36:52;16.37;;;10.03;;
22378;SDS011;11357;49.990;7.370;2023-10-19T21:39:18;11.70;;;9.53;;
22378;SDS011;11357;49.990;7.370;2023-10-19T21:41:44;14.23;;;9.60;;
22378;SDS011;11357;49.990;7.370;2023-10-19T21:44:09;11.97;;;9.23;;
22378;SDS011;11357;49.990;7.370;2023-10-19T21:46:36;10.50;;;8.60;;
22378;SDS011;11357;49.990;7.370;2023-10-19T21:49:01;10.87;;;8.20;;
22378;SDS011;11357;49.990;7.370;2023-10-19T21:51:28;11.80;;;7.33;;
22378;SDS011;11357;49.990;7.370;2023-10-19T21:53:55;9.13;;;6.33;;
22378;SDS011;11357;49.990;7.370;2023-10-19T21:56:20;7.57;;;6.80;;
22378;SDS011;11357;49.990;7.370;2023-10-19T21:58:46;10.17;;;7.47;;
22378;SDS011;11357;49.990;7.370;2023-10-19T22:01:13;10.20;;;7.97;;
22378;SDS011;11357;49.990;7.370;2023-10-19T22:03:40;8.50;;;7.20;;
22378;SDS011;11357;49.990;7.370;2023-10-19T22:06:06;8.90;;;7.20;;
22378;SDS011;11357;49.990;7.370;2023-10-19T22:08:32;9.90;;;7.57;;
22378;SDS011;11357;49.990;7.370;2023-10-19T22:10:59;8.73;;;6.47;;
22378;SDS011;11357;49.990;7.370;2023-10-19T22:13:27;7.97;;;6.27;;
22378;SDS011;11357;49.990;7.370;2023-10-19T22:15:52;7.83;;;5.73;;
22378;SDS011;11357;49.990;7.370;2023-10-19T22:18:18;10.40;;;7.20;;
22378;SDS011;11357;49.990;7.370;2023-10-19T22:20:44;8.83;;;6.60;;
22378;SDS011;11357;49.990;7.370;2023-10-19T22:23:10;10.60;;;8.20;;
22378;SDS011;11357;49.990;7.370;2023-10-19T22:25:39;14.73;;;8.97;;
22378;SDS011;11357;49.990;7.370;2023-10-19T22:28:05;15.23;;;10.90;;
22378;SDS011;11357;49.990;7.370;2023-10-19T22:30:31;14.57;;;10.60;;
22378;SDS011;11357;49.990;7.370;2023-10-19T22:32:57;14.50;;;10.70;;
22378;SDS011;11357;49.990;7.370;2023-10-19T22:35:22;12.63;;;10.20;;
22378;SDS011;11357;49.990;7.370;2023-10-19T22:37:48;14.27;;;10.77;;
22378;SDS011;11357;49.990;7.370;2023-10-19T22:40:14;11.50;;;10.30;;
22378;SDS011;11357;49.990;7.370;2023-10-19T22:42:40;16.57;;;10.73;;
22378;SDS011;11357;49.990;7.370;2023-10-19T22:45:06;12.90;;;10.17;;
22378;SDS011;11357;49.990;7.370;2023-10-19T22:47:37;12.23;;;8.53;;